createdAt,value
2022-09-14T00:01:57.289Z,55.00
2022-09-14T00:06:50.831Z,55.20
2022-09-14T00:09:17.321Z,54.60
2022-09-14T00:11:43.749Z,54.90
2022-09-14T00:16:37.403Z,55.10
2022-09-14T00:19:03.923Z,54.90
2022-09-14T00:23:57.367Z,54.90
2022-09-14T00:26:23.825Z,54.70
2022-09-14T00:28:50.263Z,55.70
2022-09-14T00:33:43.806Z,54.80
2022-09-14T00:36:10.264Z,54.80
2022-09-14T00:38:36.687Z,55.10
2022-09-14T00:41:03.159Z,54.90
2022-09-14T00:43:29.615Z,54.80
2022-09-14T00:45:56.138Z,54.40
2022-09-14T00:48:22.697Z,55.50
2022-09-14T00:50:49.168Z,54.90
2022-09-14T00:53:15.606Z,55.40
2022-09-14T00:55:42.048Z,55.40
2022-09-14T00:58:08.543Z,55.20
2022-09-14T01:05:30.968Z,54.80
2022-09-14T01:07:57.425Z,54.80
2022-09-14T01:10:23.878Z,55.00
2022-09-14T01:15:17.322Z,55.50
2022-09-14T01:17:43.773Z,55.10
2022-09-14T01:22:37.290Z,54.50
2022-09-14T01:25:03.761Z,55.10
2022-09-14T01:27:30.268Z,55.00
2022-09-14T01:29:56.780Z,55.90
2022-09-14T01:32:23.236Z,54.60
2022-09-14T01:34:49.678Z,54.80
2022-09-14T01:37:16.127Z,55.20
2022-09-14T01:39:42.597Z,55.10
2022-09-14T01:42:09.076Z,54.90
2022-09-14T01:47:02.524Z,55.10
2022-09-14T01:49:28.965Z,54.60
2022-09-14T01:51:55.413Z,56.10
2022-09-14T01:54:21.881Z,55.10
2022-09-14T01:59:15.297Z,54.80
2022-09-14T02:01:41.791Z,55.10
2022-09-14T02:06:35.368Z,54.70
2022-09-14T02:09:01.844Z,55.40
2022-09-14T02:11:28.296Z,55.20
2022-09-14T02:13:54.754Z,55.10
2022-09-14T02:18:48.288Z,55.20
2022-09-14T02:21:14.753Z,55.10
2022-09-14T02:23:41.202Z,55.20
2022-09-14T02:26:07.669Z,55.00
2022-09-14T02:28:34.133Z,55.00
2022-09-14T02:31:00.643Z,55.10
2022-09-14T02:33:27.132Z,55.10
2022-09-14T02:38:20.566Z,55.20
2022-09-14T02:40:47.011Z,55.10
2022-09-14T02:43:13.469Z,54.50
2022-09-14T02:45:39.905Z,54.90
2022-09-14T02:48:06.383Z,55.20
2022-09-14T02:50:32.833Z,55.10
2022-09-14T02:52:59.276Z,55.40
2022-09-14T02:55:25.729Z,55.10
2022-09-14T02:57:52.172Z,55.20
2022-09-14T03:02:45.584Z,55.20
2022-09-14T03:05:12.057Z,55.20
2022-09-14T03:07:38.536Z,55.00
2022-09-14T03:12:31.975Z,55.40
2022-09-14T03:14:58.428Z,56.20
2022-09-14T03:17:24.971Z,54.90
2022-09-14T03:19:51.450Z,55.30
2022-09-14T03:24:44.871Z,55.10
2022-09-14T03:27:11.374Z,55.00
2022-09-14T03:29:37.829Z,55.30
2022-09-14T03:32:04.283Z,55.30
2022-09-14T03:34:30.776Z,55.10
2022-09-14T03:36:57.228Z,55.20
2022-09-14T03:39:23.710Z,55.20
2022-09-14T03:41:50.204Z,54.90
2022-09-14T03:46:43.707Z,54.80
2022-09-14T03:49:10.210Z,54.80
2022-09-14T03:54:03.652Z,55.20
2022-09-14T03:56:30.297Z,55.20
2022-09-14T04:01:24.001Z,55.00
2022-09-14T04:03:50.543Z,55.30
2022-09-14T04:06:16.978Z,55.40
2022-09-14T04:11:10.460Z,55.40
2022-09-14T04:13:36.940Z,55.60
2022-09-14T04:18:30.472Z,55.30
2022-09-14T04:20:56.912Z,54.90
2022-09-14T04:23:23.377Z,55.30
2022-09-14T04:25:49.843Z,55.30
2022-09-14T04:28:20.613Z,55.10
2022-09-14T04:30:47.374Z,54.80
2022-09-14T04:33:13.865Z,55.40
2022-09-14T04:38:07.292Z,55.20
2022-09-14T04:40:33.827Z,55.80
2022-09-14T04:43:00.350Z,55.50
2022-09-14T04:47:53.866Z,55.40
2022-09-14T04:50:20.333Z,55.20
2022-09-14T04:55:13.814Z,55.60
2022-09-14T05:00:07.270Z,55.90
2022-09-14T05:05:00.785Z,55.40
2022-09-14T05:07:27.219Z,55.50
2022-09-14T05:12:20.659Z,55.10
2022-09-14T05:14:47.127Z,55.60
2022-09-14T05:17:13.591Z,55.30
2022-09-14T05:22:07.067Z,55.70
2022-09-14T05:24:33.540Z,55.20
2022-09-14T05:27:02.124Z,55.30
2022-09-14T05:29:28.772Z,55.20
2022-09-14T05:31:55.228Z,55.20
2022-09-14T05:34:21.697Z,55.40
2022-09-14T05:36:48.171Z,55.60
2022-09-14T05:39:14.620Z,55.20
2022-09-14T05:44:08.057Z,55.40
2022-09-14T05:49:01.675Z,55.30
2022-09-14T05:51:28.167Z,55.10
2022-09-14T05:58:48.596Z,55.40
2022-09-14T06:01:15.058Z,55.40
2022-09-14T06:03:41.486Z,55.00
2022-09-14T06:08:34.965Z,55.20
2022-09-14T06:11:01.418Z,55.40
2022-09-14T06:13:27.876Z,55.40
2022-09-14T06:18:21.449Z,56.00
2022-09-14T06:20:47.943Z,55.30
2022-09-14T06:23:14.390Z,55.50
2022-09-14T06:28:07.833Z,55.60
2022-09-14T06:30:34.282Z,55.30
2022-09-14T06:33:00.692Z,55.50
2022-09-14T06:37:54.155Z,56.10
2022-09-14T06:40:20.664Z,55.60
2022-09-14T06:45:14.244Z,55.50
2022-09-14T06:47:40.704Z,56.00
2022-09-14T06:50:07.155Z,55.80
2022-09-14T06:52:33.935Z,55.50
2022-09-14T06:55:00.566Z,55.90
2022-09-14T06:57:27.021Z,56.10
2022-09-14T06:59:53.455Z,56.00
2022-09-14T07:04:47.083Z,56.10
2022-09-14T07:07:13.540Z,56.00
2022-09-14T07:09:39.990Z,55.40
2022-09-14T07:14:33.430Z,55.60
2022-09-14T07:16:59.905Z,55.30
2022-09-14T07:19:26.371Z,55.90
2022-09-14T07:21:52.833Z,55.90
2022-09-14T07:24:19.292Z,55.30
2022-09-14T07:26:45.792Z,55.60
2022-09-14T07:34:06.197Z,57.20
2022-09-14T07:36:34.857Z,56.20
2022-09-14T07:39:01.896Z,56.50
2022-09-14T07:41:28.391Z,55.90
2022-09-14T07:43:54.838Z,56.30
2022-09-14T07:48:48.485Z,56.10
2022-09-14T07:51:15.004Z,56.30
2022-09-14T07:53:41.502Z,56.50
2022-09-14T07:56:08.016Z,56.90
2022-09-14T07:58:34.494Z,56.00
2022-09-14T08:01:01.043Z,56.30
2022-09-14T08:03:27.546Z,56.30
2022-09-14T08:05:54.016Z,56.40
2022-09-14T08:08:20.462Z,56.50
2022-09-14T08:10:46.936Z,56.50
2022-09-14T08:13:13.418Z,56.40
2022-09-14T08:15:39.920Z,56.80
2022-09-14T08:18:06.368Z,56.30
2022-09-14T08:20:32.854Z,56.40
2022-09-14T08:22:59.315Z,55.70
2022-09-14T08:25:25.763Z,56.40
2022-09-14T08:27:52.279Z,56.10
2022-09-14T08:30:18.763Z,56.30
2022-09-14T08:32:45.314Z,56.60
2022-09-14T08:37:38.735Z,56.50
2022-09-14T08:40:05.223Z,56.50
2022-09-14T08:42:31.666Z,56.00
2022-09-14T08:47:25.051Z,56.60
2022-09-14T08:54:49.348Z,56.20
2022-09-14T09:02:09.796Z,56.10
2022-09-14T09:04:36.202Z,56.10
2022-09-14T09:07:02.601Z,56.30
2022-09-14T09:11:56.001Z,56.60
2022-09-14T09:14:22.410Z,56.20
2022-09-14T09:16:48.903Z,56.30
2022-09-14T09:19:15.336Z,56.30
2022-09-14T09:24:08.781Z,56.50
2022-09-14T09:26:35.210Z,56.90
2022-09-14T09:29:01.635Z,56.10
2022-09-14T09:33:55.078Z,55.90
2022-09-14T09:36:21.854Z,56.70
2022-09-14T09:46:16.463Z,56.70
2022-09-14T09:48:43.082Z,56.70
2022-09-14T09:51:09.561Z,55.60
2022-09-14T09:53:35.992Z,56.00
2022-09-14T09:56:02.537Z,55.80
2022-09-14T09:58:28.949Z,55.50
2022-09-14T10:00:55.428Z,56.80
2022-09-14T10:03:21.887Z,55.90
2022-09-14T10:05:48.302Z,55.90
2022-09-14T10:08:14.720Z,55.70
2022-09-14T10:10:41.351Z,55.60
2022-09-14T10:15:34.708Z,56.10
2022-09-14T10:18:01.125Z,55.40
2022-09-14T10:20:27.532Z,56.00
2022-09-14T10:22:53.966Z,56.00
2022-09-14T10:25:20.379Z,56.00
2022-09-14T10:27:46.995Z,56.20
2022-09-14T10:30:13.667Z,55.40
2022-09-14T10:35:07.053Z,55.90
2022-09-14T10:37:33.711Z,55.30
2022-09-14T10:40:00.200Z,56.30
2022-09-14T10:42:26.686Z,56.70
2022-09-14T10:44:53.118Z,55.60
2022-09-14T10:47:19.550Z,56.70
2022-09-14T10:49:45.959Z,55.90
2022-09-14T10:52:12.365Z,56.70
2022-09-14T10:54:38.786Z,56.60
2022-09-14T10:59:32.163Z,55.50
2022-09-14T11:04:25.671Z,56.40
2022-09-14T11:06:52.074Z,55.40
2022-09-14T11:11:45.461Z,56.90
2022-09-14T11:14:11.886Z,55.70
2022-09-14T11:16:38.298Z,57.00
2022-09-14T11:19:04.721Z,56.10
2022-09-14T11:21:31.130Z,56.00
2022-09-14T11:23:57.651Z,57.10
2022-09-14T11:26:24.116Z,57.10
2022-09-14T11:31:17.614Z,56.70
2022-09-14T11:33:44.061Z,57.40
2022-09-14T11:36:10.476Z,58.40
2022-09-14T11:38:36.896Z,57.60
2022-09-14T11:43:30.278Z,58.70
2022-09-14T11:45:56.735Z,58.10
2022-09-14T11:51:09.087Z,57.60
2022-09-14T11:53:35.503Z,58.00
2022-09-14T11:56:01.931Z,58.10
2022-09-14T11:58:28.379Z,58.00
2022-09-14T12:00:54.782Z,58.10
2022-09-14T12:05:48.247Z,58.60
2022-09-14T12:08:14.688Z,58.00
2022-09-14T12:10:45.321Z,58.20
2022-09-14T12:13:12.302Z,58.40
2022-09-14T12:15:38.818Z,58.50
2022-09-14T12:18:05.284Z,57.40
2022-09-14T12:20:31.712Z,57.60
2022-09-14T12:22:58.129Z,57.90
2022-09-14T12:25:24.546Z,58.20
2022-09-14T12:27:50.953Z,57.40
2022-09-14T12:30:17.369Z,57.70
2022-09-14T12:32:43.790Z,57.90
2022-09-14T12:35:10.196Z,57.70
2022-09-14T12:37:36.611Z,57.70
2022-09-14T12:40:03.138Z,56.90
2022-09-14T12:44:56.672Z,57.50
2022-09-14T12:47:23.076Z,57.70
2022-09-14T12:49:49.522Z,58.40
2022-09-14T12:54:44.550Z,57.40
2022-09-14T12:57:13.434Z,57.40
2022-09-14T12:59:39.870Z,58.10
2022-09-14T13:02:06.430Z,57.30
2022-09-14T13:06:59.849Z,58.30
2022-09-14T13:11:53.205Z,57.40
2022-09-14T13:16:46.580Z,56.90
2022-09-14T13:19:13.207Z,56.80
2022-09-14T13:21:39.665Z,57.30
2022-09-14T13:24:06.094Z,57.40
2022-09-14T13:26:32.516Z,56.70
2022-09-14T13:28:59.035Z,57.30
2022-09-14T13:31:25.507Z,57.00
2022-09-14T13:33:51.964Z,57.30
2022-09-14T13:36:18.382Z,58.30
2022-09-14T13:38:44.811Z,57.20
2022-09-14T13:41:11.223Z,57.00
2022-09-14T13:46:04.691Z,57.00
2022-09-14T13:48:31.164Z,56.60
2022-09-14T13:53:24.546Z,57.60
2022-09-14T13:55:50.989Z,57.30
2022-09-14T13:58:17.406Z,57.00
2022-09-14T14:03:10.782Z,57.20
2022-09-14T14:05:37.194Z,57.10
2022-09-14T14:08:03.612Z,56.90
2022-09-14T14:10:30.020Z,57.20
2022-09-14T14:15:23.450Z,58.00
2022-09-14T14:17:49.861Z,57.90
2022-09-14T14:20:16.261Z,58.00
2022-09-14T14:22:42.670Z,57.20
2022-09-14T14:25:13.784Z,58.10
2022-09-14T14:27:40.468Z,56.60
2022-09-14T14:32:33.883Z,57.00
2022-09-14T14:39:54.316Z,57.90
2022-09-14T14:42:20.745Z,56.90
2022-09-14T14:44:47.151Z,56.90
2022-09-14T14:49:40.514Z,57.40
2022-09-14T14:52:06.929Z,57.50
2022-09-14T14:54:33.357Z,58.50
2022-09-14T14:56:59.769Z,57.30
2022-09-14T15:06:47.062Z,57.70
2022-09-14T15:11:40.450Z,58.00
2022-09-14T15:16:33.849Z,58.60
2022-09-14T15:19:00.310Z,57.90
2022-09-14T15:21:26.731Z,58.80
2022-09-14T15:26:20.402Z,58.70
2022-09-14T15:28:46.811Z,57.90
2022-09-14T15:31:13.310Z,57.90
2022-09-14T15:33:39.819Z,58.10
2022-09-14T15:36:06.234Z,57.40
2022-09-14T15:38:32.648Z,57.60
2022-09-14T15:40:59.072Z,57.70
2022-09-14T15:43:25.491Z,57.80
2022-09-14T15:45:51.935Z,57.40
2022-09-14T15:53:12.350Z,58.20
2022-09-14T15:58:05.761Z,57.20
2022-09-14T16:00:32.199Z,57.50
2022-09-14T16:07:52.519Z,59.00
2022-09-14T16:15:12.925Z,57.80
2022-09-14T16:17:39.335Z,57.60
2022-09-14T16:20:05.762Z,58.60
2022-09-14T16:22:32.177Z,58.20
2022-09-14T16:24:58.599Z,59.10
2022-09-14T16:29:51.969Z,57.70
2022-09-14T16:32:18.379Z,57.70
2022-09-14T16:34:44.808Z,58.50
2022-09-14T16:37:11.235Z,57.70
2022-09-14T16:39:37.651Z,57.70
2022-09-14T16:42:04.061Z,57.60
2022-09-14T16:44:30.497Z,57.90
2022-09-14T16:46:56.912Z,57.20
2022-09-14T16:51:54.176Z,58.40
2022-09-14T16:56:47.535Z,57.60
2022-09-14T16:59:13.945Z,57.60
2022-09-14T17:01:40.401Z,58.30
2022-09-14T17:04:06.902Z,57.20
2022-09-14T17:13:54.189Z,57.40
2022-09-14T17:16:20.678Z,57.10
2022-09-14T17:18:47.112Z,57.20
2022-09-14T17:23:40.556Z,57.00
2022-09-14T17:26:06.990Z,56.90
2022-09-14T17:28:33.406Z,57.50
2022-09-14T17:30:59.861Z,57.40
2022-09-14T17:33:26.315Z,57.40
2022-09-14T17:35:52.755Z,58.10
2022-09-14T17:38:19.203Z,57.20
2022-09-14T17:40:45.628Z,57.40
2022-09-14T17:43:12.027Z,57.40
2022-09-14T17:45:38.462Z,56.80
2022-09-14T17:50:31.856Z,57.30
2022-09-14T17:55:25.222Z,57.20
2022-09-14T17:57:51.642Z,56.90
2022-09-14T18:02:45.017Z,56.90
2022-09-14T18:05:11.459Z,57.10
2022-09-14T18:07:37.893Z,57.70
2022-09-14T18:10:04.290Z,56.70
2022-09-14T18:12:30.710Z,57.10
2022-09-14T18:14:57.131Z,58.10
2022-09-14T18:17:23.539Z,57.10
2022-09-14T18:19:49.980Z,56.70
2022-09-14T18:22:16.417Z,56.80
2022-09-14T18:24:42.838Z,56.80
2022-09-14T18:27:09.252Z,56.90
2022-09-14T18:32:02.638Z,56.70
2022-09-14T18:34:29.068Z,56.70
2022-09-14T18:36:55.481Z,56.90
2022-09-14T18:39:21.887Z,57.10
2022-09-14T18:44:15.273Z,56.90
2022-09-14T18:46:41.784Z,56.80
2022-09-14T18:49:08.231Z,57.30
2022-09-14T18:51:34.656Z,57.10
2022-09-14T18:54:01.075Z,57.70
2022-09-14T18:58:54.486Z,57.20
2022-09-14T19:01:21.081Z,57.30
2022-09-14T19:06:14.528Z,56.90
2022-09-14T19:08:41.003Z,57.10
2022-09-14T19:11:07.430Z,57.20
2022-09-14T19:16:00.916Z,56.30
2022-09-14T19:18:27.373Z,56.70
2022-09-14T19:21:06.244Z,56.60
2022-09-14T19:23:33.498Z,56.60
2022-09-14T19:25:59.933Z,56.40
2022-09-14T19:28:26.347Z,56.60
2022-09-14T19:30:52.754Z,56.40
2022-09-14T19:33:19.227Z,56.10
2022-09-14T19:35:45.643Z,56.00
2022-09-14T19:38:12.073Z,56.40
2022-09-14T19:45:32.540Z,56.20
2022-09-14T19:47:58.968Z,56.70
2022-09-14T19:50:25.390Z,55.90
2022-09-14T19:52:51.814Z,56.10
2022-09-14T19:55:18.237Z,55.10
2022-09-14T19:57:44.650Z,55.50
2022-09-14T20:00:13.288Z,55.60
2022-09-14T20:05:09.860Z,56.30
2022-09-14T20:07:36.287Z,55.40
2022-09-14T20:10:02.712Z,55.50
2022-09-14T20:12:29.138Z,56.50
2022-09-14T20:14:55.556Z,56.10
2022-09-14T20:17:21.986Z,55.40
2022-09-14T20:24:43.460Z,55.40
2022-09-14T20:27:09.902Z,56.20
2022-09-14T20:29:36.317Z,55.60
2022-09-14T20:32:02.733Z,54.80
2022-09-14T20:34:29.136Z,55.20
2022-09-14T20:36:55.569Z,56.00
2022-09-14T20:39:21.969Z,55.70
2022-09-14T20:41:48.383Z,56.00
2022-09-14T20:44:14.821Z,55.60
2022-09-14T20:46:41.276Z,55.10
2022-09-14T20:51:34.649Z,55.10
2022-09-14T20:54:01.058Z,55.20
2022-09-14T20:56:27.478Z,55.80
2022-09-14T21:01:21.096Z,54.70
2022-09-14T21:06:14.480Z,55.70
2022-09-14T21:08:40.907Z,55.90
2022-09-14T21:11:07.320Z,54.70
2022-09-14T21:13:33.735Z,55.80
2022-09-14T21:16:00.259Z,55.40
2022-09-14T21:20:53.673Z,54.60
2022-09-14T21:23:20.088Z,55.90
2022-09-14T21:25:46.482Z,55.00
2022-09-14T21:28:12.893Z,55.00
2022-09-14T21:30:39.337Z,55.60
2022-09-14T21:33:05.764Z,55.10
2022-09-14T21:35:33.743Z,54.80
2022-09-14T21:38:00.239Z,55.00
2022-09-14T21:40:26.714Z,55.50
2022-09-14T21:42:53.170Z,55.30
2022-09-14T21:45:19.578Z,55.50
2022-09-14T21:47:46.043Z,55.00
2022-09-14T21:50:12.444Z,55.00
2022-09-14T21:52:38.860Z,55.50
2022-09-14T21:55:05.278Z,54.80
2022-09-14T21:57:31.694Z,55.70
2022-09-14T21:59:58.094Z,55.60
2022-09-14T22:02:24.530Z,55.50
2022-09-14T22:04:50.983Z,55.10
2022-09-14T22:09:44.329Z,55.30
2022-09-14T22:12:10.753Z,55.90
2022-09-14T22:17:04.103Z,54.80
2022-09-14T22:19:30.523Z,55.60
2022-09-14T22:21:56.939Z,54.90
2022-09-14T22:24:23.353Z,54.90
2022-09-14T22:29:16.794Z,55.20
2022-09-14T22:31:43.223Z,55.00
2022-09-14T22:34:09.641Z,55.40
2022-09-14T22:39:03.021Z,54.90
2022-09-14T22:41:29.425Z,54.60
2022-09-14T22:43:55.841Z,55.50
2022-09-14T22:46:22.336Z,55.90
2022-09-14T22:48:48.832Z,55.70
2022-09-14T22:51:15.238Z,54.90
2022-09-14T22:53:41.660Z,55.50
2022-09-14T22:56:08.099Z,55.90
2022-09-14T22:58:34.514Z,55.40
2022-09-14T23:01:00.957Z,54.80
2022-09-14T23:03:27.396Z,55.40
2022-09-14T23:05:53.826Z,54.70
2022-09-14T23:08:20.245Z,55.40
2022-09-14T23:10:46.651Z,55.50
2022-09-14T23:13:13.070Z,54.90
2022-09-14T23:18:06.435Z,55.60
2022-09-14T23:20:32.836Z,55.10
2022-09-14T23:22:59.253Z,55.40
2022-09-14T23:27:52.607Z,55.50
2022-09-14T23:30:19.031Z,55.50
2022-09-14T23:32:45.425Z,55.70
2022-09-14T23:35:11.848Z,55.40
2022-09-14T23:44:59.146Z,55.00
2022-09-14T23:47:25.553Z,55.20
2022-09-14T23:49:51.984Z,55.00
2022-09-14T23:54:45.347Z,55.70
2022-09-14T23:57:11.752Z,54.60
2022-09-14T23:59:38.166Z,55.00
